createdAt,value
2022-08-16T00:00:41.793Z,55.38
2022-08-16T00:03:13.532Z,55.33
2022-08-16T00:05:48.624Z,54.76
2022-08-16T00:08:30.626Z,55.37
2022-08-16T00:11:05.601Z,57.12
2022-08-16T00:13:32.508Z,56.76
2022-08-16T00:16:57.973Z,56.24
2022-08-16T00:19:04.957Z,55.74
2022-08-16T00:21:33.769Z,56.75
2022-08-16T00:24:00.502Z,56.36
2022-08-16T00:26:36.008Z,55.86
2022-08-16T00:29:15.678Z,55.31
2022-08-16T00:31:58.808Z,54.90
2022-08-16T00:34:41.362Z,55.01
2022-08-16T00:37:12.294Z,54.83
2022-08-16T00:39:44.362Z,56.00
2022-08-16T00:42:11.031Z,56.18
2022-08-16T00:44:39.852Z,56.85
2022-08-16T00:47:13.428Z,56.89
2022-08-16T00:49:44.800Z,56.88
2022-08-16T00:52:30.216Z,57.31
2022-08-16T00:54:59.375Z,57.00
2022-08-16T00:57:27.425Z,56.24
2022-08-16T01:00:19.213Z,55.72
2022-08-16T01:02:48.804Z,57.24
2022-08-16T01:05:15.805Z,57.11
2022-08-16T01:07:52.062Z,58.17
2022-08-16T01:10:32.312Z,57.99
2022-08-16T01:13:09.036Z,57.33
2022-08-16T01:15:47.772Z,56.61
2022-08-16T01:18:40.558Z,57.49
2022-08-16T01:21:36.682Z,58.58
2022-08-16T01:24:45.294Z,58.08
2022-08-16T01:27:47.636Z,57.20
2022-08-16T01:30:21.729Z,58.42
2022-08-16T01:33:01.284Z,59.16
2022-08-16T01:35:41.973Z,59.14
2022-08-16T01:38:19.380Z,58.27
2022-08-16T01:40:47.666Z,57.99
2022-08-16T01:43:14.745Z,58.10
2022-08-16T01:45:43.420Z,58.50
2022-08-16T01:48:19.165Z,60.71
2022-08-16T01:51:09.407Z,61.21
2022-08-16T01:53:40.467Z,59.78
2022-08-16T01:56:08.141Z,60.22
2022-08-16T01:58:50.984Z,59.86
2022-08-16T02:01:18.222Z,59.77
2022-08-16T02:03:44.890Z,60.04
2022-08-16T02:06:34.498Z,59.98
2022-08-16T02:09:05.157Z,59.79
2022-08-16T02:11:47.743Z,59.95
2022-08-16T02:14:27.406Z,59.64
2022-08-16T02:16:56.430Z,60.20
2022-08-16T02:19:25.347Z,59.78
2022-08-16T02:22:34.961Z,61.76
2022-08-16T02:25:02.494Z,61.28
2022-08-16T02:27:29.439Z,61.14
2022-08-16T02:30:05.518Z,63.13
2022-08-16T02:32:49.263Z,63.31
2022-08-16T02:35:23.219Z,61.79
2022-08-16T02:37:52.595Z,61.06
2022-08-16T02:40:22.332Z,61.01
2022-08-16T02:42:50.673Z,60.22
2022-08-16T02:45:27.757Z,61.90
2022-08-16T02:48:01.867Z,61.62
2022-08-16T02:51:06.080Z,63.38
2022-08-16T02:53:29.128Z,62.84
2022-08-16T02:55:56.916Z,63.42
2022-08-16T02:58:24.861Z,63.39
2022-08-16T03:00:55.918Z,60.80
2022-08-16T03:03:24.404Z,62.31
2022-08-16T03:05:52.580Z,62.25
2022-08-16T03:08:52.074Z,62.11
2022-08-16T03:11:16.766Z,62.70
2022-08-16T03:13:45.615Z,62.98
2022-08-16T03:16:32.814Z,63.88
2022-08-16T03:19:01.810Z,63.55
2022-08-16T03:21:28.697Z,63.19
2022-08-16T03:24:29.059Z,62.52
2022-08-16T03:26:58.097Z,63.58
2022-08-16T03:29:30.976Z,63.40
2022-08-16T03:32:01.712Z,64.07
2022-08-16T03:34:29.837Z,63.93
2022-08-16T03:36:56.842Z,65.18
2022-08-16T03:39:23.663Z,64.89
2022-08-16T03:41:51.243Z,65.02
2022-08-16T03:44:44.381Z,64.17
2022-08-16T03:47:12.716Z,64.13
2022-08-16T03:49:45.583Z,65.37
2022-08-16T03:52:12.203Z,63.97
2022-08-16T03:54:39.112Z,64.81
2022-08-16T03:57:20.735Z,66.73
2022-08-16T03:59:47.394Z,65.44
2022-08-16T04:02:22.011Z,64.17
2022-08-16T04:04:50.240Z,64.28
2022-08-16T04:07:17.288Z,64.48
2022-08-16T04:09:44.885Z,65.81
2022-08-16T04:12:54.377Z,65.09
2022-08-16T04:14:59.766Z,66.00
2022-08-16T04:17:29.151Z,63.16
2022-08-16T04:19:58.197Z,63.14
2022-08-16T04:22:27.641Z,64.92
2022-08-16T04:24:55.430Z,65.54
2022-08-16T04:27:29.062Z,66.08
2022-08-16T04:30:02.887Z,66.66
2022-08-16T04:32:30.967Z,66.87
2022-08-16T04:34:57.612Z,68.04
2022-08-16T04:37:24.285Z,68.31
2022-08-16T04:39:55.681Z,69.15
2022-08-16T04:42:26.383Z,68.39
2022-08-16T04:44:56.846Z,68.03
2022-08-16T04:47:32.995Z,68.99
2022-08-16T04:50:05.097Z,69.04
2022-08-16T04:52:33.468Z,68.60
2022-08-16T04:55:12.053Z,68.32
2022-08-16T04:57:39.580Z,69.17
2022-08-16T05:00:30.615Z,70.49
2022-08-16T05:03:07.049Z,69.54
2022-08-16T05:05:45.460Z,68.47
2022-08-16T05:08:29.231Z,67.71
2022-08-16T05:11:03.699Z,69.04
2022-08-16T05:13:40.977Z,68.54
2022-08-16T05:16:19.774Z,68.20
2022-08-16T05:18:53.624Z,69.67
2022-08-16T05:21:23.444Z,71.05
2022-08-16T05:23:55.936Z,62.57
2022-08-16T05:26:28.157Z,59.17
2022-08-16T05:28:59.081Z,58.84
2022-08-16T05:31:29.307Z,60.33
2022-08-16T05:34:03.122Z,62.02
2022-08-16T05:36:36.589Z,61.11
2022-08-16T05:39:06.714Z,61.85
2022-08-16T05:41:45.410Z,61.47
2022-08-16T05:44:24.241Z,63.00
2022-08-16T05:46:56.804Z,63.72
2022-08-16T05:49:25.213Z,63.70
2022-08-16T05:52:05.470Z,64.71
2022-08-16T05:54:40.898Z,64.50
2022-08-16T05:57:13.875Z,64.70
2022-08-16T05:59:41.898Z,64.79
2022-08-16T06:02:08.526Z,62.76
2022-08-16T06:04:37.477Z,61.91
2022-08-16T06:07:06.786Z,63.69
2022-08-16T06:09:42.705Z,65.48
2022-08-16T06:12:27.177Z,63.97
2022-08-16T06:14:59.177Z,62.33
2022-08-16T06:17:34.087Z,61.75
2022-08-16T06:20:34.728Z,62.90
2022-08-16T06:23:03.401Z,60.25
2022-08-16T06:25:36.771Z,59.58
2022-08-16T06:28:10.161Z,59.31
2022-08-16T06:30:45.300Z,59.32
2022-08-16T06:33:22.392Z,58.59
2022-08-16T06:35:55.196Z,57.73
2022-08-16T06:38:34.090Z,58.51
2022-08-16T06:41:13.619Z,57.44
2022-08-16T06:43:41.076Z,58.99
2022-08-16T06:46:10.000Z,59.63
2022-08-16T06:48:43.144Z,58.90
2022-08-16T06:51:12.113Z,58.17
2022-08-16T06:53:41.571Z,57.33
2022-08-16T06:56:14.758Z,58.35
2022-08-16T06:58:50.199Z,58.78
2022-08-16T07:01:20.156Z,57.29
2022-08-16T07:03:55.424Z,55.72
2022-08-16T07:06:26.529Z,55.61
2022-08-16T07:08:54.814Z,52.67
2022-08-16T07:11:48.106Z,54.03
2022-08-16T07:14:26.224Z,54.53
2022-08-16T07:16:58.212Z,52.05
2022-08-16T07:19:33.562Z,51.77
2022-08-16T07:22:52.385Z,54.30
2022-08-16T07:25:00.712Z,54.65
2022-08-16T07:27:27.744Z,53.21
2022-08-16T07:29:55.609Z,54.05
2022-08-16T07:32:29.620Z,51.74
2022-08-16T07:34:58.340Z,53.21
2022-08-16T07:37:25.076Z,51.48
2022-08-16T07:39:52.144Z,50.88
2022-08-16T07:42:34.768Z,47.63
2022-08-16T07:45:03.023Z,48.37
2022-08-16T07:47:36.085Z,48.15
2022-08-16T07:50:07.568Z,46.78
2022-08-16T07:52:34.930Z,48.56
2022-08-16T07:55:07.720Z,45.47
2022-08-16T07:57:38.090Z,46.28
2022-08-16T08:00:21.233Z,47.01
2022-08-16T08:02:53.362Z,48.46
2022-08-16T08:05:29.720Z,45.96
2022-08-16T08:08:02.301Z,45.77
2022-08-16T08:10:39.273Z,46.80
2022-08-16T08:13:07.732Z,46.07
2022-08-16T08:15:34.576Z,45.39
2022-08-16T08:18:29.446Z,46.47
2022-08-16T08:20:59.581Z,43.75
2022-08-16T08:23:27.034Z,44.59
2022-08-16T08:25:55.902Z,44.32
2022-08-16T08:28:22.817Z,43.60
2022-08-16T08:31:01.596Z,45.04
2022-08-16T08:33:31.171Z,42.82
2022-08-16T08:36:00.799Z,42.74
2022-08-16T08:38:45.742Z,42.45
2022-08-16T08:41:13.825Z,40.67
2022-08-16T08:43:48.996Z,43.36
2022-08-16T08:46:21.727Z,44.05
2022-08-16T08:48:59.565Z,41.07
2022-08-16T08:51:27.462Z,40.70
2022-08-16T08:53:58.065Z,39.72
2022-08-16T08:56:25.866Z,39.34
2022-08-16T08:58:58.078Z,37.87
2022-08-16T09:01:36.923Z,37.16
2022-08-16T09:04:10.462Z,37.03
2022-08-16T09:06:43.218Z,38.32
2022-08-16T09:09:16.797Z,38.35
2022-08-16T09:11:47.262Z,36.76
2022-08-16T09:14:24.301Z,39.58
2022-08-16T09:17:01.346Z,38.16
2022-08-16T09:19:35.193Z,36.99
2022-08-16T09:22:02.153Z,38.66
2022-08-16T09:24:46.615Z,38.33
2022-08-16T09:27:15.947Z,37.80
2022-08-16T09:29:45.562Z,38.60
2022-08-16T09:32:12.553Z,36.30
2022-08-16T09:34:58.327Z,35.84
2022-08-16T09:37:29.785Z,36.45
2022-08-16T09:39:59.638Z,38.26
2022-08-16T09:42:28.960Z,36.86
2022-08-16T09:45:10.995Z,35.02
2022-08-16T09:47:56.922Z,35.06
2022-08-16T09:50:36.720Z,35.33
2022-08-16T09:53:15.009Z,35.98
2022-08-16T09:55:46.327Z,35.42
2022-08-16T09:58:37.771Z,36.73
2022-08-16T10:01:08.446Z,36.03
2022-08-16T10:03:35.350Z,35.16
2022-08-16T10:06:02.157Z,34.01
2022-08-16T10:08:28.779Z,32.80
2022-08-16T10:10:55.406Z,32.63
2022-08-16T10:13:22.123Z,33.28
2022-08-16T10:15:53.382Z,34.18
2022-08-16T10:18:56.348Z,31.85
2022-08-16T10:21:09.340Z,33.08
2022-08-16T10:23:35.981Z,31.96
2022-08-16T10:27:20.022Z,31.84
2022-08-16T10:28:50.349Z,33.81
2022-08-16T10:31:44.412Z,30.87
2022-08-16T10:34:04.764Z,32.58
2022-08-16T10:36:54.275Z,31.26
2022-08-16T10:39:21.375Z,31.25
2022-08-16T10:41:48.028Z,31.35
2022-08-16T10:44:14.835Z,31.42
2022-08-16T10:46:44.419Z,30.95
2022-08-16T10:49:12.676Z,32.33
2022-08-16T10:52:03.138Z,29.39
2022-08-16T10:54:31.548Z,31.92
2022-08-16T10:56:59.835Z,29.81
2022-08-16T10:59:38.245Z,29.78
2022-08-16T11:02:59.226Z,28.72
2022-08-16T11:05:08.768Z,28.96
2022-08-16T11:07:51.717Z,29.49
2022-08-16T11:16:25.797Z,29.50
2022-08-16T11:19:04.315Z,29.13
2022-08-16T11:21:35.081Z,28.62
2022-08-16T11:24:01.907Z,29.99
2022-08-16T11:26:30.364Z,28.62
2022-08-16T11:29:13.852Z,27.99
2022-08-16T11:31:45.590Z,27.50
2022-08-16T11:34:16.205Z,27.99
2022-08-16T11:36:57.246Z,28.18
2022-08-16T11:39:29.217Z,27.45
2022-08-16T11:41:56.559Z,28.62
2022-08-16T11:44:53.102Z,27.37
2022-08-16T11:47:11.645Z,27.09
2022-08-16T11:49:38.351Z,27.52
2022-08-16T11:52:05.209Z,26.60
2022-08-16T11:54:36.177Z,26.16
2022-08-16T11:57:04.242Z,27.48
2022-08-16T11:59:36.950Z,27.47
2022-08-16T12:02:31.094Z,30.16
2022-08-16T12:04:56.587Z,31.68
2022-08-16T12:07:24.156Z,32.66
2022-08-16T12:09:53.465Z,32.48
2022-08-16T12:12:21.052Z,32.80
2022-08-16T12:14:59.363Z,33.25
2022-08-16T12:17:31.621Z,32.19
2022-08-16T12:19:59.880Z,31.84
2022-08-16T12:22:27.788Z,31.77
2022-08-16T12:24:54.499Z,32.60
2022-08-16T12:27:23.475Z,32.72
2022-08-16T12:29:52.076Z,33.07
2022-08-16T12:32:35.922Z,31.52
2022-08-16T12:35:07.673Z,31.58
2022-08-16T12:37:35.284Z,30.90
2022-08-16T12:40:02.383Z,31.66
2022-08-16T12:42:34.649Z,32.85
2022-08-16T12:45:05.121Z,31.11
2022-08-16T12:47:31.808Z,30.75
2022-08-16T12:49:58.691Z,31.18
2022-08-16T12:52:33.056Z,31.22
2022-08-16T12:55:00.634Z,30.30
2022-08-16T12:57:36.175Z,28.72
2022-08-16T13:00:07.122Z,31.08
2022-08-16T13:02:36.608Z,30.11
2022-08-16T13:05:06.928Z,29.44
2022-08-16T13:07:37.362Z,27.05
2022-08-16T13:10:21.114Z,27.41
2022-08-16T13:12:52.969Z,27.83
2022-08-16T13:15:25.334Z,29.00
2022-08-16T13:17:52.159Z,29.62
2022-08-16T13:20:24.532Z,28.49
2022-08-16T13:23:03.697Z,29.70
2022-08-16T13:25:32.594Z,29.94
2022-08-16T13:28:16.893Z,30.02
2022-08-16T13:30:54.714Z,29.39
2022-08-16T13:33:30.806Z,29.52
2022-08-16T13:36:00.092Z,30.09
2022-08-16T13:38:32.689Z,30.57
2022-08-16T13:41:08.417Z,30.19
2022-08-16T13:43:36.494Z,31.79
2022-08-16T13:46:04.651Z,29.02
2022-08-16T13:48:42.713Z,30.13
2022-08-16T13:51:15.758Z,30.86
2022-08-16T13:53:59.852Z,31.11
2022-08-16T13:56:38.047Z,30.47
2022-08-16T13:59:14.227Z,30.96
2022-08-16T14:01:55.025Z,31.97
2022-08-16T14:04:28.225Z,32.88
2022-08-16T14:07:00.734Z,32.01
2022-08-16T14:09:29.283Z,30.78
2022-08-16T14:11:57.871Z,32.12
2022-08-16T14:14:29.150Z,32.56
2022-08-16T14:16:58.352Z,31.44
2022-08-16T14:19:25.313Z,31.64
2022-08-16T14:22:15.401Z,31.48
2022-08-16T14:24:48.231Z,29.88
2022-08-16T14:27:17.164Z,30.35
2022-08-16T14:29:45.565Z,30.74
2022-08-16T14:32:32.705Z,30.72
2022-08-16T14:35:07.735Z,29.54
2022-08-16T14:37:35.162Z,30.00
2022-08-16T14:40:03.106Z,29.47
2022-08-16T14:42:30.268Z,29.53
2022-08-16T14:44:57.122Z,28.91
2022-08-16T14:47:23.848Z,30.36
2022-08-16T14:49:52.327Z,31.47
2022-08-16T14:52:44.625Z,30.56
2022-08-16T14:55:10.912Z,29.09
2022-08-16T14:57:39.619Z,30.89
2022-08-16T15:00:11.211Z,31.14
2022-08-16T15:02:40.409Z,29.83
2022-08-16T15:05:10.514Z,29.26
2022-08-16T15:07:40.213Z,30.27
2022-08-16T15:10:21.490Z,30.93
2022-08-16T15:12:50.617Z,30.30
2022-08-16T15:15:18.916Z,30.55
2022-08-16T15:17:56.647Z,32.30
2022-08-16T15:20:29.408Z,32.96
2022-08-16T15:22:59.141Z,33.44
2022-08-16T15:25:33.548Z,31.67
2022-08-16T15:28:02.095Z,31.79
2022-08-16T15:30:57.554Z,33.93
2022-08-16T15:33:19.673Z,34.52
2022-08-16T15:35:47.801Z,35.67
2022-08-16T15:38:56.981Z,39.76
2022-08-16T15:41:02.952Z,42.97
2022-08-16T15:43:39.256Z,45.32
2022-08-16T15:46:06.444Z,43.88
2022-08-16T15:48:35.324Z,42.73
2022-08-16T15:51:08.257Z,41.53
2022-08-16T15:53:41.886Z,40.29
2022-08-16T15:56:09.849Z,40.69
2022-08-16T15:58:38.928Z,41.32
2022-08-16T16:01:06.036Z,39.60
2022-08-16T16:03:34.496Z,38.59
2022-08-16T16:06:01.696Z,36.17
2022-08-16T16:08:28.935Z,36.63
2022-08-16T16:11:00.287Z,38.38
2022-08-16T16:13:31.311Z,37.94
2022-08-16T16:16:02.856Z,37.67
2022-08-16T16:18:31.383Z,37.55
2022-08-16T16:21:01.685Z,37.94
2022-08-16T16:23:35.738Z,37.48
2022-08-16T16:26:12.606Z,35.61
2022-08-16T16:29:05.074Z,36.35
2022-08-16T16:31:28.313Z,36.25
2022-08-16T16:34:03.375Z,35.85
2022-08-16T16:36:32.278Z,34.69
2022-08-16T16:39:02.197Z,34.95
2022-08-16T16:41:30.375Z,34.77
2022-08-16T16:43:59.603Z,35.08
2022-08-16T16:46:41.326Z,36.10
2022-08-16T16:49:14.211Z,36.25
2022-08-16T16:51:41.358Z,35.93
2022-08-16T16:54:13.223Z,36.60
2022-08-16T16:56:40.486Z,36.37
2022-08-16T16:59:16.546Z,36.11
2022-08-16T17:01:57.462Z,36.59
2022-08-16T17:04:36.655Z,37.35
2022-08-16T17:07:03.883Z,36.74
2022-08-16T17:09:40.341Z,35.81
2022-08-16T17:12:09.415Z,37.17
2022-08-16T17:14:38.418Z,37.13
2022-08-16T17:17:08.761Z,37.66
2022-08-16T17:19:40.145Z,38.17
2022-08-16T17:22:15.842Z,39.19
2022-08-16T17:24:50.627Z,39.90
2022-08-16T17:27:32.503Z,39.64
2022-08-16T17:30:02.329Z,39.49
2022-08-16T17:35:19.666Z,40.35
2022-08-16T17:37:54.335Z,40.46
2022-08-16T17:39:27.123Z,39.78
2022-08-16T17:40:40.432Z,40.93
2022-08-16T17:43:14.554Z,40.89
2022-08-16T17:45:42.618Z,41.25
2022-08-16T17:48:09.572Z,41.46
2022-08-16T17:50:43.104Z,41.52
2022-08-16T17:53:13.458Z,43.00
2022-08-16T17:55:44.784Z,43.70
2022-08-16T17:58:23.468Z,43.15
2022-08-16T18:00:53.813Z,43.30
2022-08-16T18:04:02.683Z,44.12
2022-08-16T18:06:13.802Z,44.97
2022-08-16T18:08:40.916Z,43.74
2022-08-16T18:11:10.174Z,43.98
2022-08-16T18:13:39.320Z,43.74
2022-08-16T18:16:06.266Z,43.73
2022-08-16T18:18:33.003Z,43.84
2022-08-16T18:20:59.758Z,44.25
2022-08-16T18:23:27.294Z,44.49
2022-08-16T18:25:59.233Z,44.80
2022-08-16T18:28:27.867Z,44.40
2022-08-16T18:31:00.790Z,44.61
2022-08-16T18:33:28.787Z,44.72
2022-08-16T18:35:57.820Z,45.53
2022-08-16T18:38:25.119Z,45.50
2022-08-16T18:40:52.711Z,45.72
2022-08-16T18:43:54.421Z,45.36
2022-08-16T18:46:13.153Z,44.45
2022-08-16T18:48:39.792Z,44.66
2022-08-16T18:51:16.574Z,43.88
2022-08-16T18:53:48.271Z,44.00
2022-08-16T18:56:16.443Z,43.93
2022-08-16T18:58:43.068Z,44.16
2022-08-16T19:01:09.756Z,44.72
2022-08-16T19:03:36.445Z,44.76
2022-08-16T19:06:11.297Z,44.91
2022-08-16T19:08:40.272Z,45.30
2022-08-16T19:11:09.719Z,44.22
2022-08-16T19:13:36.383Z,44.22
2022-08-16T19:16:04.374Z,46.17
2022-08-16T19:18:36.565Z,45.65
2022-08-16T19:21:05.031Z,45.58
2022-08-16T19:23:33.890Z,46.02
2022-08-16T19:26:24.721Z,47.66
2022-08-16T19:28:58.355Z,46.10
2022-08-16T19:31:33.751Z,46.66
2022-08-16T19:34:02.957Z,48.35
2022-08-16T19:36:36.711Z,47.90
2022-08-16T19:39:11.839Z,46.93
2022-08-16T19:41:41.728Z,46.95
2022-08-16T19:44:08.958Z,47.77
2022-08-16T19:46:37.835Z,48.29
2022-08-16T19:49:05.626Z,47.52
2022-08-16T19:51:32.935Z,47.74
2022-08-16T19:54:02.900Z,47.33
2022-08-16T19:56:29.650Z,48.79
2022-08-16T19:59:18.015Z,48.63
2022-08-16T20:01:44.506Z,48.10
2022-08-16T20:04:12.842Z,48.94
2022-08-16T20:06:41.074Z,48.21
2022-08-16T20:09:08.334Z,49.63
2022-08-16T20:11:39.920Z,49.43
2022-08-16T20:14:06.547Z,50.12
2022-08-16T20:16:33.376Z,49.92
2022-08-16T20:18:59.988Z,50.28
2022-08-16T20:21:26.703Z,50.23
2022-08-16T20:23:58.310Z,49.92
2022-08-16T20:26:38.058Z,50.20
2022-08-16T20:29:04.701Z,51.15
2022-08-16T20:31:31.322Z,50.95
2022-08-16T20:33:58.061Z,50.21
2022-08-16T20:36:24.678Z,49.94
2022-08-16T20:38:51.318Z,51.04
2022-08-16T20:41:18.077Z,51.59
2022-08-16T20:43:46.259Z,52.03
2022-08-16T20:46:13.413Z,52.35
2022-08-16T20:48:40.060Z,53.07
2022-08-16T20:51:06.708Z,52.18
2022-08-16T20:53:33.442Z,51.89
2022-08-16T20:56:00.182Z,52.80
2022-08-16T20:58:26.906Z,52.45
2022-08-16T21:00:53.616Z,52.69
2022-08-16T21:03:20.266Z,54.00
2022-08-16T21:05:48.230Z,54.78
2022-08-16T21:08:50.569Z,55.61
2022-08-16T21:11:05.702Z,55.50
2022-08-16T21:13:33.406Z,55.28
2022-08-16T21:16:01.585Z,55.61
2022-08-16T21:18:28.627Z,54.95
2022-08-16T21:20:55.611Z,54.40
2022-08-16T21:23:22.290Z,55.10
2022-08-16T21:25:57.828Z,55.42
2022-08-16T21:28:41.911Z,55.72
2022-08-16T21:31:13.228Z,56.09
2022-08-16T21:33:40.861Z,56.46
2022-08-16T21:36:08.057Z,57.49
2022-08-16T21:38:34.921Z,58.87
2022-08-16T21:41:07.159Z,58.88
2022-08-16T21:43:34.936Z,58.85
2022-08-16T21:46:03.387Z,59.13
2022-08-16T21:48:32.627Z,59.13
2022-08-16T21:51:10.578Z,60.47
2022-08-16T21:53:37.812Z,58.85
2022-08-16T21:56:05.498Z,59.45
2022-08-16T21:58:32.819Z,58.59
2022-08-16T22:01:00.487Z,58.58
2022-08-16T22:03:35.839Z,59.38
2022-08-16T22:06:13.824Z,60.33
2022-08-16T22:08:50.527Z,60.08
2022-08-16T22:11:23.842Z,59.36
2022-08-16T22:13:58.856Z,58.97
2022-08-16T22:16:30.243Z,58.72
2022-08-16T22:18:57.036Z,58.80
2022-08-16T22:21:23.776Z,60.08
2022-08-16T22:23:55.150Z,59.61
2022-08-16T22:26:30.193Z,60.31
2022-08-16T22:29:03.632Z,60.97
2022-08-16T22:31:31.659Z,61.04
2022-08-16T22:33:59.242Z,61.27
2022-08-16T22:36:28.033Z,60.71
2022-08-16T22:38:58.093Z,61.43
2022-08-16T22:41:25.639Z,62.11
2022-08-16T22:43:52.802Z,62.63
2022-08-16T22:46:19.577Z,62.77
2022-08-16T22:48:46.685Z,63.25
2022-08-16T22:51:13.489Z,63.35
2022-08-16T22:53:41.435Z,63.24
2022-08-16T22:56:08.679Z,63.53
2022-08-16T22:58:36.955Z,62.89
2022-08-16T23:01:07.133Z,62.94
2022-08-16T23:03:34.466Z,63.09
2022-08-16T23:06:01.131Z,63.13
2022-08-16T23:08:38.702Z,63.12
2022-08-16T23:11:28.488Z,63.18
2022-08-16T23:13:56.726Z,63.88
2022-08-16T23:16:32.516Z,65.50
2022-08-16T23:19:04.590Z,64.96
2022-08-16T23:21:32.039Z,65.42
2022-08-16T23:23:58.699Z,65.49
2022-08-16T23:26:46.919Z,65.07
2022-08-16T23:29:21.944Z,63.47
2022-08-16T23:31:56.381Z,64.55
2022-08-16T23:34:24.026Z,63.23
2022-08-16T23:36:50.684Z,64.79
2022-08-16T23:39:17.326Z,64.57
2022-08-16T23:41:44.072Z,65.04
2022-08-16T23:44:55.725Z,64.69
2022-08-16T23:46:57.308Z,66.11
2022-08-16T23:49:57.983Z,66.19
2022-08-16T23:52:10.779Z,64.25
2022-08-16T23:54:37.417Z,65.53
2022-08-16T23:57:04.539Z,66.23
2022-08-16T23:59:35.278Z,66.46
